Berg, Netherlands
Current Conditions -  °F | °C
As of 8:55 PM on Thursday 23 Oct 2014 (Local Time) from EHBK Reporting Station
Overcast Overcast  
Wind Chill: 52°   Ceiling: 4400
Heat Index: 52°   Visibility: 6mi
Dew Point: 48°   Wind: 8mph
Humidity: 88%   Direction: 190°S
Pressure: 30.18"   Gusts: NA
Location:  50.86°N, 5.78°E
Report Text: EHBK 231855Z AUTO 19007KT 9999 OVC044 11/09 Q1022 NOSIG
Loading
Personal Weather Stations






























Interactive Weather Map
Tropical Storm Tracking
New forecast layout! Learn more

10-Day Weather Forecast

Advertisements
Track Severe Weather on mobile